createdAt,value
2023-02-08T00:00:03.757Z,-1.92
2023-02-08T00:01:03.185Z,-1.99
2023-02-08T00:02:03.649Z,-1.98
2023-02-08T00:03:03.676Z,-1.96
2023-02-08T00:04:03.883Z,-1.96
2023-02-08T00:05:03.678Z,-1.95
2023-02-08T00:06:03.730Z,-1.93
2023-02-08T00:07:04.511Z,-1.92
2023-02-08T00:08:03.911Z,-1.92
2023-02-08T00:09:04.134Z,-1.90
2023-02-08T00:10:04.426Z,-1.90
2023-02-08T00:11:04.388Z,-1.92
2023-02-08T00:12:03.281Z,-1.93
2023-02-08T00:13:03.282Z,-1.90
2023-02-08T00:14:03.379Z,-1.90
2023-02-08T00:15:03.101Z,-1.88
2023-02-08T00:16:03.058Z,-1.85
2023-02-08T00:17:03.636Z,-1.85
2023-02-08T00:18:03.613Z,-1.88
2023-02-08T00:19:03.583Z,-1.87
2023-02-08T00:20:03.549Z,-1.87
2023-02-08T00:21:03.192Z,-1.85
2023-02-08T00:22:03.891Z,-1.92
2023-02-08T00:23:03.410Z,-1.93
2023-02-08T00:24:03.462Z,-1.96
2023-02-08T00:25:03.678Z,-1.99
2023-02-08T00:26:03.769Z,-1.99
2023-02-08T00:27:03.100Z,-1.95
2023-02-08T00:28:04.665Z,-1.99
2023-02-08T00:29:03.174Z,-1.98
2023-02-08T00:30:03.311Z,-1.99
2023-02-08T00:31:03.400Z,-2.00
2023-02-08T00:32:04.032Z,-2.03
2023-02-08T00:33:03.705Z,-2.02
2023-02-08T00:34:03.526Z,-2.02
2023-02-08T00:35:03.584Z,-2.03
2023-02-08T00:36:03.479Z,-2.05
2023-02-08T00:37:03.610Z,-2.00
2023-02-08T00:38:03.597Z,-1.99
2023-02-08T00:39:03.927Z,-1.98
2023-02-08T00:40:03.800Z,-1.96
2023-02-08T00:41:03.762Z,-1.98
2023-02-08T00:42:03.003Z,-2.00
2023-02-08T00:43:02.998Z,-2.00
2023-02-08T00:44:03.439Z,-2.00
2023-02-08T00:45:03.175Z,-2.02
2023-02-08T00:46:03.262Z,-2.03
2023-02-08T00:47:03.846Z,-2.00
2023-02-08T00:48:03.247Z,-2.03
2023-02-08T00:49:03.450Z,-2.06
2023-02-08T00:50:03.681Z,-2.08
2023-02-08T00:51:03.596Z,-2.10
2023-02-08T00:52:02.637Z,-2.10
2023-02-08T00:53:02.802Z,-2.06
2023-02-08T00:54:03.017Z,-2.05
2023-02-08T00:55:03.052Z,-2.08
2023-02-08T00:56:02.736Z,-2.23
2023-02-08T00:57:02.890Z,-2.32
2023-02-08T00:58:02.950Z,-2.36
2023-02-08T00:59:02.941Z,-2.36
2023-02-08T01:00:02.891Z,-2.36
2023-02-08T01:01:03.013Z,-2.29
2023-02-08T01:02:04.435Z,-2.32
2023-02-08T01:03:04.592Z,-2.24
2023-02-08T01:04:03.986Z,-2.32
2023-02-08T01:05:04.223Z,-2.40
2023-02-08T01:06:04.284Z,-2.43
2023-02-08T01:07:03.453Z,-2.47
2023-02-08T01:08:03.761Z,-2.50
2023-02-08T01:09:03.820Z,-2.40
2023-02-08T01:10:03.856Z,-2.40
2023-02-08T01:11:03.483Z,-2.38
2023-02-08T01:12:03.416Z,-2.35
2023-02-08T01:13:03.716Z,-2.32
2023-02-08T01:14:03.735Z,-2.33
2023-02-08T01:15:03.721Z,-2.33
2023-02-08T01:16:03.889Z,-2.36
2023-02-08T01:17:04.277Z,-2.33
2023-02-08T01:18:04.287Z,-2.32
2023-02-08T01:19:03.852Z,-2.29
2023-02-08T01:20:03.958Z,-2.33
2023-02-08T01:21:03.829Z,-2.23
2023-02-08T01:22:03.855Z,-2.20
2023-02-08T01:23:03.838Z,-2.21
2023-02-08T01:24:03.820Z,-2.24
2023-02-08T01:25:03.712Z,-2.26
2023-02-08T01:26:03.466Z,-2.35
2023-02-08T01:27:03.717Z,-2.32
2023-02-08T01:28:03.747Z,-2.35
2023-02-08T01:29:03.783Z,-2.35
2023-02-08T01:30:03.784Z,-2.29
2023-02-08T01:31:03.898Z,-2.26
2023-02-08T01:32:03.845Z,-2.26
2023-02-08T01:33:04.098Z,-2.32
2023-02-08T01:34:04.174Z,-2.38
2023-02-08T01:35:04.155Z,-2.42
2023-02-08T01:36:04.248Z,-2.47
2023-02-08T01:37:03.366Z,-2.47
2023-02-08T01:38:03.377Z,-2.47
2023-02-08T01:39:03.079Z,-2.45
2023-02-08T01:40:03.172Z,-2.48
2023-02-08T01:41:03.283Z,-2.53
2023-02-08T01:42:03.510Z,-2.50
2023-02-08T01:43:03.354Z,-2.51
2023-02-08T01:44:03.515Z,-2.51
2023-02-08T01:45:03.514Z,-2.56
2023-02-08T01:46:03.628Z,-2.57
2023-02-08T01:47:03.880Z,-2.54
2023-02-08T01:48:03.968Z,-2.51
2023-02-08T01:49:04.028Z,-2.57
2023-02-08T01:50:03.357Z,-2.58
2023-02-08T01:51:03.714Z,-2.60
2023-02-08T01:52:03.794Z,-2.58
2023-02-08T01:53:03.820Z,-2.60
2023-02-08T01:54:03.876Z,-2.64
2023-02-08T01:55:03.737Z,-2.64
2023-02-08T01:56:03.800Z,-2.68
2023-02-08T01:57:03.416Z,-2.72
2023-02-08T01:58:02.747Z,-2.72
2023-02-08T01:59:02.943Z,-2.71
2023-02-08T02:00:03.010Z,-2.74
2023-02-08T02:01:03.120Z,-2.75
2023-02-08T02:02:04.422Z,-2.79
2023-02-08T02:03:04.171Z,-2.76
2023-02-08T02:04:04.296Z,-2.79
2023-02-08T02:05:04.239Z,-2.81
2023-02-08T02:06:04.468Z,-2.81
2023-02-08T02:07:03.409Z,-2.78
2023-02-08T02:08:03.221Z,-2.79
2023-02-08T02:09:03.270Z,-2.78
2023-02-08T02:10:03.535Z,-2.76
2023-02-08T02:11:03.283Z,-2.72
2023-02-08T02:12:03.488Z,-2.68
2023-02-08T02:13:03.264Z,-2.64
2023-02-08T02:14:03.552Z,-2.63
2023-02-08T02:15:03.335Z,-2.60
2023-02-08T02:16:03.399Z,-2.61
2023-02-08T02:17:03.980Z,-2.58
2023-02-08T02:18:04.390Z,-2.58
2023-02-08T02:19:04.449Z,-2.54
2023-02-08T02:20:03.829Z,-2.51
2023-02-08T02:21:04.331Z,-2.45
2023-02-08T02:22:03.361Z,-2.42
2023-02-08T02:23:03.466Z,-2.40
2023-02-08T02:24:03.648Z,-2.42
2023-02-08T02:25:03.679Z,-2.42
2023-02-08T02:26:03.012Z,-2.47
2023-02-08T02:27:03.900Z,-2.50
2023-02-08T02:28:03.977Z,-2.47
2023-02-08T02:29:03.970Z,-2.45
2023-02-08T02:30:04.010Z,-2.43
2023-02-08T02:31:03.984Z,-2.40
2023-02-08T02:32:04.339Z,-2.43
2023-02-08T02:33:04.232Z,-2.42
2023-02-08T02:34:04.221Z,-2.43
2023-02-08T02:35:03.784Z,-2.47
2023-02-08T02:36:04.134Z,-2.50
2023-02-08T02:37:04.196Z,-2.51
2023-02-08T02:38:03.942Z,-2.53
2023-02-08T02:39:04.334Z,-2.51
2023-02-08T02:40:04.370Z,-2.48
2023-02-08T02:41:04.338Z,-2.51
2023-02-08T02:42:03.245Z,-2.54
2023-02-08T02:43:03.250Z,-2.56
2023-02-08T02:44:03.329Z,-2.60
2023-02-08T02:45:03.342Z,-2.58
2023-02-08T02:46:03.687Z,-2.63
2023-02-08T02:47:03.652Z,-2.61
2023-02-08T02:48:03.419Z,-2.60
2023-02-08T02:49:03.539Z,-2.60
2023-02-08T02:50:03.801Z,-2.63
2023-02-08T02:51:03.333Z,-2.64
2023-02-08T02:52:04.015Z,-2.69
2023-02-08T02:53:04.064Z,-2.69
2023-02-08T02:54:04.105Z,-2.75
2023-02-08T02:55:04.286Z,-2.81
2023-02-08T02:56:03.703Z,-2.86
2023-02-08T02:57:03.650Z,-2.87
2023-02-08T02:58:03.409Z,-2.86
2023-02-08T02:59:03.734Z,-2.85
2023-02-08T03:00:03.488Z,-2.85
2023-02-08T03:01:03.693Z,-2.82
2023-02-08T03:02:04.976Z,-2.79
2023-02-08T03:03:04.290Z,-2.79
2023-02-08T03:04:04.387Z,-2.78
2023-02-08T03:05:04.430Z,-2.81
2023-02-08T03:06:04.447Z,-2.86
2023-02-08T03:07:04.134Z,-2.87
2023-02-08T03:08:04.267Z,-2.89
2023-02-08T03:09:04.144Z,-2.92
2023-02-08T03:10:03.756Z,-2.94
2023-02-08T03:11:03.726Z,-2.94
2023-02-08T03:12:04.587Z,-2.93
2023-02-08T03:13:04.238Z,-2.94
2023-02-08T03:14:04.498Z,-2.96
2023-02-08T03:15:04.553Z,-2.97
2023-02-08T03:16:04.696Z,-2.94
2023-02-08T03:17:03.823Z,-2.94
2023-02-08T03:18:04.038Z,-2.94
2023-02-08T03:19:04.077Z,-2.94
2023-02-08T03:20:04.169Z,-2.94
2023-02-08T03:21:04.121Z,-2.93
2023-02-08T03:22:04.859Z,-2.96
2023-02-08T03:23:04.639Z,-2.94
2023-02-08T03:24:04.566Z,-2.94
2023-02-08T03:25:04.679Z,-2.94
2023-02-08T03:26:04.851Z,-2.93
2023-02-08T03:27:04.803Z,-2.96
2023-02-08T03:28:05.130Z,-2.94
2023-02-08T03:29:04.376Z,-2.92
2023-02-08T03:30:04.718Z,-2.89
2023-02-08T03:31:04.860Z,-2.86
2023-02-08T03:32:04.590Z,-2.81
2023-02-08T03:33:04.581Z,-2.81
2023-02-08T03:34:04.597Z,-2.79
2023-02-08T03:35:04.033Z,-2.75
2023-02-08T03:36:04.288Z,-2.75
2023-02-08T03:37:04.115Z,-2.78
2023-02-08T03:38:04.113Z,-2.78
2023-02-08T03:39:04.089Z,-2.79
2023-02-08T03:40:04.107Z,-2.81
2023-02-08T03:41:03.680Z,-2.78
2023-02-08T03:42:04.357Z,-2.78
2023-02-08T03:43:04.158Z,-2.79
2023-02-08T03:44:04.192Z,-2.85
2023-02-08T03:45:04.361Z,-2.79
2023-02-08T03:46:04.457Z,-2.78
2023-02-08T03:47:04.143Z,-2.75
2023-02-08T03:48:04.138Z,-2.76
2023-02-08T03:49:04.102Z,-2.76
2023-02-08T03:50:04.078Z,-2.78
2023-02-08T03:51:03.885Z,-2.78
2023-02-08T03:52:03.928Z,-2.82
2023-02-08T03:53:04.349Z,-2.86
2023-02-08T03:54:04.441Z,-2.92
2023-02-08T03:55:04.047Z,-2.94
2023-02-08T03:56:04.160Z,-2.94
2023-02-08T03:57:04.180Z,-2.97
2023-02-08T03:58:04.795Z,-3.00
2023-02-08T03:59:04.193Z,-3.00
2023-02-08T04:00:04.365Z,-3.02
2023-02-08T04:01:04.830Z,-3.04
2023-02-08T04:02:04.190Z,-3.02
2023-02-08T04:03:04.472Z,-3.00
2023-02-08T04:04:04.811Z,-2.99
2023-02-08T04:05:04.397Z,-2.99
2023-02-08T04:06:04.443Z,-3.00
2023-02-08T04:07:04.659Z,-3.02
2023-02-08T04:08:04.555Z,-3.04
2023-02-08T04:09:04.553Z,-3.00
2023-02-08T04:10:04.505Z,-3.02
2023-02-08T04:11:04.548Z,-3.04
2023-02-08T04:12:03.636Z,-3.02
2023-02-08T04:13:04.166Z,-3.04
2023-02-08T04:14:04.154Z,-3.07
2023-02-08T04:15:03.545Z,-3.05
2023-02-08T04:16:03.905Z,-3.08
2023-02-08T04:17:03.936Z,-3.10
2023-02-08T04:18:04.045Z,-3.11
2023-02-08T04:19:03.844Z,-3.11
2023-02-08T04:20:04.186Z,-3.13
2023-02-08T04:21:04.429Z,-3.14
2023-02-08T04:22:04.333Z,-3.15
2023-02-08T04:23:04.621Z,-3.17
2023-02-08T04:24:04.649Z,-3.14
2023-02-08T04:25:04.599Z,-3.11
2023-02-08T04:26:04.702Z,-3.11
2023-02-08T04:27:05.958Z,-3.08
2023-02-08T04:28:03.867Z,-3.05
2023-02-08T04:29:03.401Z,-3.05
2023-02-08T04:30:03.787Z,-3.04
2023-02-08T04:31:03.678Z,-3.04
2023-02-08T04:32:03.737Z,-3.05
2023-02-08T04:33:04.161Z,-3.08
2023-02-08T04:34:04.054Z,-3.07
2023-02-08T04:35:04.188Z,-3.07
2023-02-08T04:36:03.621Z,-3.05
2023-02-08T04:37:03.980Z,-3.07
2023-02-08T04:38:04.106Z,-3.07
2023-02-08T04:39:04.063Z,-3.02
2023-02-08T04:40:04.223Z,-3.04
2023-02-08T04:41:04.244Z,-3.00
2023-02-08T04:42:04.317Z,-3.04
2023-02-08T04:43:04.253Z,-3.05
2023-02-08T04:44:04.424Z,-3.04
2023-02-08T04:45:04.644Z,-3.07
2023-02-08T04:46:04.261Z,-3.10
2023-02-08T04:47:03.398Z,-3.11
2023-02-08T04:48:03.446Z,-3.14
2023-02-08T04:49:03.315Z,-3.11
2023-02-08T04:50:03.765Z,-3.11
2023-02-08T04:51:03.287Z,-3.10
2023-02-08T04:52:03.331Z,-3.11
2023-02-08T04:53:03.656Z,-3.13
2023-02-08T04:54:03.779Z,-3.11
2023-02-08T04:55:03.408Z,-3.07
2023-02-08T04:56:03.523Z,-3.07
2023-02-08T04:57:03.359Z,-3.07
2023-02-08T04:58:03.656Z,-3.10
2023-02-08T04:59:03.674Z,-3.10
2023-02-08T05:00:03.533Z,-3.08
2023-02-08T05:01:03.792Z,-3.02
2023-02-08T05:02:04.636Z,-3.04
2023-02-08T05:03:05.052Z,-3.02
2023-02-08T05:04:04.728Z,-3.00
2023-02-08T05:05:04.891Z,-2.97
2023-02-08T05:06:04.911Z,-2.96
2023-02-08T05:07:04.018Z,-2.93
2023-02-08T05:08:04.118Z,-2.93
2023-02-08T05:09:04.248Z,-2.94
2023-02-08T05:10:04.391Z,-2.94
2023-02-08T05:11:04.057Z,-2.94
2023-02-08T05:12:04.150Z,-3.02
2023-02-08T05:13:04.249Z,-3.02
2023-02-08T05:14:04.402Z,-3.02
2023-02-08T05:15:04.519Z,-2.99
2023-02-08T05:16:04.102Z,-3.00
2023-02-08T05:17:04.153Z,-2.99
2023-02-08T05:18:04.234Z,-3.04
2023-02-08T05:19:04.386Z,-3.07
2023-02-08T05:20:04.182Z,-3.08
2023-02-08T05:21:04.009Z,-3.10
2023-02-08T05:22:04.492Z,-3.11
2023-02-08T05:23:03.942Z,-3.11
2023-02-08T05:24:04.287Z,-3.13
2023-02-08T05:25:04.294Z,-3.14
2023-02-08T05:26:03.887Z,-3.18
2023-02-08T05:27:04.337Z,-3.18
2023-02-08T05:28:04.391Z,-3.22
2023-02-08T05:29:04.169Z,-3.20
2023-02-08T05:30:04.231Z,-3.22
2023-02-08T05:31:04.481Z,-3.23
2023-02-08T05:32:04.777Z,-3.23
2023-02-08T05:33:04.846Z,-3.22
2023-02-08T05:34:04.917Z,-3.20
2023-02-08T05:35:04.546Z,-3.14
2023-02-08T05:36:05.318Z,-3.14
2023-02-08T05:37:03.920Z,-3.14
2023-02-08T05:38:03.729Z,-3.15
2023-02-08T05:39:03.955Z,-3.18
2023-02-08T05:40:04.018Z,-3.22
2023-02-08T05:41:03.866Z,-3.25
2023-02-08T05:42:04.035Z,-3.28
2023-02-08T05:43:04.117Z,-3.28
2023-02-08T05:44:04.100Z,-3.28
2023-02-08T05:45:04.187Z,-3.31
2023-02-08T05:46:03.873Z,-3.31
2023-02-08T05:47:04.198Z,-3.29
2023-02-08T05:48:03.789Z,-3.32
2023-02-08T05:49:04.216Z,-3.31
2023-02-08T05:50:03.826Z,-3.31
2023-02-08T05:51:03.913Z,-3.29
2023-02-08T05:52:03.614Z,-3.26
2023-02-08T05:53:03.846Z,-3.26
2023-02-08T05:54:03.685Z,-3.25
2023-02-08T05:55:03.503Z,-3.25
2023-02-08T05:56:03.462Z,-3.23
2023-02-08T05:57:04.431Z,-3.22
2023-02-08T05:58:04.477Z,-3.18
2023-02-08T05:59:04.579Z,-3.20
2023-02-08T06:00:04.052Z,-3.18
2023-02-08T06:01:04.434Z,-3.18
2023-02-08T06:02:04.528Z,-3.18
2023-02-08T06:03:04.631Z,-3.20
2023-02-08T06:04:04.744Z,-3.23
2023-02-08T06:05:04.225Z,-3.23
2023-02-08T06:06:04.651Z,-3.25
2023-02-08T06:07:04.106Z,-3.26
2023-02-08T06:08:04.290Z,-3.25
2023-02-08T06:09:04.164Z,-3.23
2023-02-08T06:10:04.318Z,-3.25
2023-02-08T06:11:03.817Z,-3.25
2023-02-08T06:12:03.759Z,-3.26
2023-02-08T06:13:04.023Z,-3.23
2023-02-08T06:14:03.456Z,-3.26
2023-02-08T06:15:03.840Z,-3.23
2023-02-08T06:16:03.636Z,-3.23
2023-02-08T06:17:04.577Z,-3.23
2023-02-08T06:18:04.073Z,-3.22
2023-02-08T06:19:04.346Z,-3.22
2023-02-08T06:20:04.582Z,-3.20
2023-02-08T06:21:04.073Z,-3.20
2023-02-08T06:22:03.719Z,-3.22
2023-02-08T06:23:03.852Z,-3.23
2023-02-08T06:24:03.432Z,-3.23
2023-02-08T06:25:03.485Z,-3.25
2023-02-08T06:26:03.800Z,-3.23
2023-02-08T06:27:04.028Z,-3.25
2023-02-08T06:28:04.152Z,-3.26
2023-02-08T06:29:04.320Z,-3.23
2023-02-08T06:30:04.474Z,-3.23
2023-02-08T06:31:03.976Z,-3.23
2023-02-08T06:32:04.623Z,-3.25
2023-02-08T06:33:04.417Z,-3.23
2023-02-08T06:34:04.511Z,-3.22
2023-02-08T06:35:03.985Z,-3.23
2023-02-08T06:36:04.129Z,-3.23
2023-02-08T06:37:04.010Z,-3.23
2023-02-08T06:38:03.787Z,-3.25
2023-02-08T06:39:03.725Z,-3.22
2023-02-08T06:40:03.691Z,-3.20
2023-02-08T06:41:03.384Z,-3.20
2023-02-08T06:42:04.388Z,-3.18
2023-02-08T06:43:04.044Z,-3.18
2023-02-08T06:44:04.251Z,-3.18
2023-02-08T06:45:04.053Z,-3.18
2023-02-08T06:46:03.806Z,-3.18
2023-02-08T06:47:03.590Z,-3.18
2023-02-08T06:48:03.725Z,-3.20
2023-02-08T06:49:03.559Z,-3.17
2023-02-08T06:50:03.752Z,-3.18
2023-02-08T06:51:03.688Z,-3.15
2023-02-08T06:52:02.992Z,-3.14
2023-02-08T06:53:02.921Z,-3.11
2023-02-08T06:54:03.471Z,-3.08
2023-02-08T06:55:02.912Z,-3.08
2023-02-08T06:56:03.340Z,-3.08
2023-02-08T06:57:04.105Z,-3.04
2023-02-08T06:58:03.846Z,-3.05
2023-02-08T06:59:04.053Z,-3.02
2023-02-08T07:00:03.529Z,-3.04
2023-02-08T07:01:03.990Z,-3.02
2023-02-08T07:02:04.593Z,-3.04
2023-02-08T07:03:04.852Z,-3.04
2023-02-08T07:04:04.418Z,-3.04
2023-02-08T07:05:04.913Z,-3.08
2023-02-08T07:06:05.734Z,-3.08
2023-02-08T07:07:03.795Z,-3.08
2023-02-08T07:08:04.043Z,-3.11
2023-02-08T07:09:04.334Z,-3.14
2023-02-08T07:10:03.885Z,-3.15
2023-02-08T07:11:04.010Z,-3.15
2023-02-08T07:12:04.350Z,-3.17
2023-02-08T07:13:04.721Z,-3.18
2023-02-08T07:14:04.275Z,-3.22
2023-02-08T07:15:04.444Z,-3.22
2023-02-08T07:16:04.554Z,-3.22
2023-02-08T07:17:03.994Z,-3.20
2023-02-08T07:18:04.207Z,-3.20
2023-02-08T07:19:04.432Z,-3.17
2023-02-08T07:20:03.898Z,-3.14
2023-02-08T07:21:04.141Z,-3.15
2023-02-08T07:22:07.208Z,-3.14
2023-02-08T07:23:04.850Z,-3.10
2023-02-08T07:24:04.680Z,-3.11
2023-02-08T07:25:04.279Z,-3.07
2023-02-08T07:26:04.825Z,-3.08
2023-02-08T07:27:04.468Z,-3.08
2023-02-08T07:28:05.010Z,-3.05
2023-02-08T07:29:04.444Z,-3.04
2023-02-08T07:30:04.755Z,-3.10
2023-02-08T07:31:04.570Z,-3.10
2023-02-08T07:32:03.957Z,-3.07
2023-02-08T07:33:04.370Z,-3.05
2023-02-08T07:34:03.950Z,-3.08
2023-02-08T07:35:04.255Z,-3.04
2023-02-08T07:36:03.662Z,-3.00
2023-02-08T07:37:04.348Z,-3.00
2023-02-08T07:38:04.537Z,-3.00
2023-02-08T07:39:04.825Z,-3.00
2023-02-08T07:40:04.385Z,-3.00
2023-02-08T07:41:04.538Z,-2.99
2023-02-08T07:42:03.743Z,-3.02
2023-02-08T07:43:03.973Z,-3.04
2023-02-08T07:44:04.145Z,-3.05
2023-02-08T07:45:03.540Z,-3.04
2023-02-08T07:46:04.081Z,-3.04
2023-02-08T07:47:04.391Z,-2.99
2023-02-08T07:48:04.669Z,-2.97
2023-02-08T07:49:04.158Z,-2.97
2023-02-08T07:50:04.647Z,-2.94
2023-02-08T07:51:04.143Z,-2.87
2023-02-08T07:52:03.544Z,-2.87
2023-02-08T07:53:03.736Z,-2.90
2023-02-08T07:54:03.299Z,-2.93
2023-02-08T07:55:03.438Z,-2.87
2023-02-08T07:56:03.583Z,-2.86
2023-02-08T07:57:04.173Z,-2.86
2023-02-08T07:58:03.835Z,-2.79
2023-02-08T07:59:04.414Z,-2.76
2023-02-08T08:00:03.957Z,-2.72
2023-02-08T08:01:19.529Z,-2.69
2023-02-08T08:02:04.452Z,-2.74
2023-02-08T08:03:04.034Z,-2.76
2023-02-08T08:04:04.498Z,-2.75
2023-02-08T08:05:04.071Z,-2.71
2023-02-08T08:06:04.272Z,-2.68
2023-02-08T08:07:03.696Z,-2.66
2023-02-08T08:08:03.367Z,-2.71
2023-02-08T08:09:03.843Z,-2.71
2023-02-08T08:10:03.566Z,-2.68
2023-02-08T08:11:04.016Z,-2.61
2023-02-08T08:12:04.216Z,-2.57
2023-02-08T08:13:04.170Z,-2.56
2023-02-08T08:14:04.324Z,-2.57
2023-02-08T08:15:04.496Z,-2.60
2023-02-08T08:16:04.060Z,-2.58
2023-02-08T08:17:03.633Z,-2.54
2023-02-08T08:18:03.841Z,-2.54
2023-02-08T08:19:03.355Z,-2.56
2023-02-08T08:20:03.316Z,-2.54
2023-02-08T08:21:03.751Z,-2.51
2023-02-08T08:22:03.958Z,-2.48
2023-02-08T08:23:03.950Z,-2.45
2023-02-08T08:24:03.618Z,-2.42
2023-02-08T08:25:04.109Z,-2.36
2023-02-08T08:26:04.096Z,-2.33
2023-02-08T08:27:04.817Z,-2.29
2023-02-08T08:28:04.157Z,-2.29
2023-02-08T08:29:04.177Z,-2.26
2023-02-08T08:30:03.754Z,-2.23
2023-02-08T08:31:04.037Z,-2.20
2023-02-08T08:32:03.376Z,-2.17
2023-02-08T08:33:03.115Z,-2.13
2023-02-08T08:34:03.566Z,-2.11
2023-02-08T08:35:03.124Z,-2.08
2023-02-08T08:36:03.468Z,-2.06
2023-02-08T08:37:03.875Z,-2.03
2023-02-08T08:38:03.440Z,-2.00
2023-02-08T08:39:03.405Z,-1.99
2023-02-08T08:40:03.821Z,-1.99
2023-02-08T08:41:03.416Z,-1.98
2023-02-08T08:42:03.886Z,-1.98
2023-02-08T08:43:04.056Z,-1.93
2023-02-08T08:44:03.602Z,-1.88
2023-02-08T08:45:03.887Z,-1.87
2023-02-08T08:46:03.847Z,-1.87
2023-02-08T08:47:03.176Z,-1.81
2023-02-08T08:48:03.446Z,-1.78
2023-02-08T08:49:02.939Z,-1.74
2023-02-08T08:50:03.391Z,-1.64
2023-02-08T08:51:03.014Z,-1.63
2023-02-08T08:52:03.642Z,-1.62
2023-02-08T08:53:03.332Z,-1.57
2023-02-08T08:54:03.818Z,-1.53
2023-02-08T08:55:03.366Z,-1.46
2023-02-08T08:56:03.637Z,-1.39
2023-02-08T08:58:03.316Z,-1.24
2023-02-08T08:59:03.881Z,-1.17
2023-02-08T09:00:03.661Z,-1.07
2023-02-08T09:01:03.392Z,-1.00
2023-02-08T09:02:04.363Z,-0.91
2023-02-08T09:03:03.990Z,-0.81
2023-02-08T09:04:04.367Z,-0.75
2023-02-08T09:05:03.948Z,-0.65
2023-02-08T09:06:04.052Z,-0.54
2023-02-08T09:07:02.953Z,-0.41
2023-02-08T09:08:03.117Z,-0.29
2023-02-08T09:09:03.390Z,-0.16
2023-02-08T09:10:03.028Z,-0.05
2023-02-08T09:11:03.044Z,0.10
2023-02-08T09:12:04.016Z,0.25
2023-02-08T09:13:03.674Z,0.41
2023-02-08T09:14:04.644Z,0.49
2023-02-08T09:15:03.758Z,0.60
2023-02-08T09:16:04.076Z,0.70
2023-02-08T09:17:03.431Z,0.80
2023-02-08T09:18:03.188Z,0.92
2023-02-08T09:19:03.439Z,1.07
2023-02-08T09:20:04.835Z,1.15
2023-02-08T09:21:03.247Z,1.26
2023-02-08T09:22:03.954Z,1.36
2023-02-08T09:23:03.501Z,1.42
2023-02-08T09:24:03.909Z,1.47
2023-02-08T09:25:03.401Z,1.57
2023-02-08T09:26:03.636Z,1.62
2023-02-08T09:27:03.998Z,1.69
2023-02-08T09:28:03.508Z,1.78
2023-02-08T09:29:03.679Z,1.89
2023-02-08T09:30:03.900Z,1.91
2023-02-08T09:31:04.087Z,2.01
2023-02-08T09:32:03.504Z,2.08
2023-02-08T09:33:03.217Z,2.10
2023-02-08T09:34:03.406Z,2.15
2023-02-08T09:35:03.347Z,2.22
2023-02-08T09:36:02.878Z,2.28
2023-02-08T09:37:04.019Z,2.34
2023-02-08T09:38:03.740Z,2.38
2023-02-08T09:39:03.417Z,2.45
2023-02-08T09:40:03.617Z,2.51
2023-02-08T09:41:03.804Z,2.55
2023-02-08T09:42:04.125Z,2.61
2023-02-08T09:43:03.681Z,2.67
2023-02-08T09:44:03.931Z,2.69
2023-02-08T09:45:04.015Z,2.71
2023-02-08T09:46:03.983Z,2.76
2023-02-08T09:47:02.633Z,2.82
2023-02-08T09:48:02.915Z,2.89
2023-02-08T09:49:03.143Z,2.94
2023-02-08T09:50:02.705Z,2.97
2023-02-08T09:51:03.070Z,3.03
2023-02-08T09:52:02.826Z,3.05
2023-02-08T09:53:03.199Z,3.12
2023-02-08T09:54:02.747Z,3.15
2023-02-08T09:55:03.124Z,3.20
2023-02-08T09:56:03.172Z,3.25
2023-02-08T09:57:03.263Z,3.27
2023-02-08T09:58:03.821Z,3.34
2023-02-08T09:59:03.294Z,3.43
2023-02-08T10:00:03.213Z,3.49
2023-02-08T10:01:05.868Z,3.58
2023-02-08T10:02:04.785Z,3.62
2023-02-08T10:03:04.902Z,3.65
2023-02-08T10:04:04.969Z,3.65
2023-02-08T10:05:04.474Z,3.67
2023-02-08T10:06:04.516Z,3.70
2023-02-08T10:07:03.726Z,3.75
2023-02-08T10:08:04.029Z,3.79
2023-02-08T10:09:03.746Z,3.86
2023-02-08T10:10:03.986Z,3.90
2023-02-08T10:11:04.069Z,3.97
2023-02-08T10:12:04.278Z,4.01
2023-02-08T10:13:04.293Z,4.04
2023-02-08T10:14:04.614Z,4.07
2023-02-08T10:15:04.440Z,4.12
2023-02-08T10:16:04.743Z,4.15
2023-02-08T10:17:03.847Z,4.19
2023-02-08T10:18:04.341Z,4.22
2023-02-08T10:19:03.886Z,4.28
2023-02-08T10:20:04.233Z,4.33
2023-02-08T10:21:04.250Z,4.37
2023-02-08T10:22:03.893Z,4.39
2023-02-08T10:23:03.357Z,4.44
2023-02-08T10:24:03.549Z,4.46
2023-02-08T10:25:03.323Z,4.50
2023-02-08T10:26:03.637Z,4.57
2023-02-08T10:27:03.937Z,4.64
2023-02-08T10:28:03.774Z,4.67
2023-02-08T10:29:03.376Z,4.70
2023-02-08T10:30:03.369Z,4.70
2023-02-08T10:31:03.480Z,4.70
2023-02-08T10:32:03.547Z,4.73
2023-02-08T10:33:03.737Z,4.79
2023-02-08T10:34:05.461Z,4.86
2023-02-08T10:35:04.262Z,4.95
2023-02-08T10:36:04.114Z,5.09
2023-02-08T10:37:04.148Z,5.20
2023-02-08T10:38:04.710Z,5.22
2023-02-08T10:39:04.671Z,5.22
2023-02-08T10:40:04.148Z,5.23
2023-02-08T10:41:04.244Z,5.30
2023-02-08T10:42:03.397Z,5.38
2023-02-08T10:43:03.544Z,5.46
2023-02-08T10:44:03.978Z,5.52
2023-02-08T10:45:08.277Z,5.64
2023-02-08T10:46:03.701Z,5.78
2023-02-08T10:47:03.793Z,5.92
2023-02-08T10:48:03.753Z,5.95
2023-02-08T10:49:04.057Z,5.98
2023-02-08T10:50:04.043Z,6.01
2023-02-08T10:51:04.009Z,6.10
2023-02-08T10:52:04.342Z,6.19
2023-02-08T10:53:04.124Z,6.35
2023-02-08T10:54:04.592Z,6.54
2023-02-08T10:55:03.983Z,6.77
2023-02-08T10:56:04.437Z,6.87
2023-02-08T10:57:04.120Z,6.87
2023-02-08T10:58:04.282Z,6.89
2023-02-08T10:59:04.899Z,6.89
2023-02-08T11:00:04.612Z,7.01
2023-02-08T11:01:05.154Z,7.12
2023-02-08T11:02:04.797Z,7.13
2023-02-08T11:03:04.927Z,7.26
2023-02-08T11:04:05.423Z,7.27
2023-02-08T11:05:04.774Z,7.22
2023-02-08T11:06:05.245Z,7.23
2023-02-08T11:07:04.486Z,7.24
2023-02-08T11:08:04.673Z,7.26
2023-02-08T11:09:04.261Z,7.32
2023-02-08T11:10:04.347Z,7.56
2023-02-08T11:11:04.596Z,7.74
2023-02-08T11:12:04.567Z,7.79
2023-02-08T11:13:04.795Z,7.92
2023-02-08T11:14:05.274Z,8.04
2023-02-08T11:15:04.600Z,8.18
2023-02-08T11:16:04.697Z,8.25
2023-02-08T11:17:04.300Z,8.28
2023-02-08T11:18:04.350Z,8.39
2023-02-08T11:19:04.664Z,8.44
2023-02-08T11:20:04.564Z,8.51
2023-02-08T11:21:04.593Z,8.57
2023-02-08T11:22:04.443Z,8.62
2023-02-08T11:23:04.445Z,8.71
2023-02-08T11:24:05.160Z,8.81
2023-02-08T11:25:04.742Z,8.83
2023-02-08T11:26:04.810Z,8.90
2023-02-08T11:27:04.322Z,8.84
2023-02-08T11:28:04.022Z,8.79
2023-02-08T11:29:04.048Z,8.90
2023-02-08T11:30:04.460Z,8.86
2023-02-08T11:31:03.960Z,8.91
2023-02-08T11:32:04.262Z,8.97
2023-02-08T11:33:04.280Z,9.01
2023-02-08T11:34:05.180Z,8.99
2023-02-08T11:35:03.980Z,8.91
2023-02-08T11:36:04.032Z,8.90
2023-02-08T11:37:04.222Z,8.97
2023-02-08T11:38:04.365Z,9.15
2023-02-08T11:39:03.941Z,9.20
2023-02-08T11:40:04.450Z,9.12
2023-02-08T11:41:04.334Z,9.21
2023-02-08T11:42:04.571Z,9.38
2023-02-08T11:43:04.565Z,9.57
2023-02-08T11:44:04.282Z,9.68
2023-02-08T11:45:04.346Z,9.73
2023-02-08T11:46:04.505Z,9.82
2023-02-08T11:47:04.689Z,9.91
2023-02-08T11:48:04.941Z,9.99
2023-02-08T11:49:04.444Z,10.00
2023-02-08T11:50:04.637Z,10.01
2023-02-08T11:51:04.793Z,10.00
2023-02-08T11:52:04.828Z,10.03
2023-02-08T11:53:04.888Z,10.00
2023-02-08T11:54:04.580Z,9.88
2023-02-08T11:55:04.803Z,9.91
2023-02-08T11:56:04.830Z,9.96
2023-02-08T11:57:04.018Z,9.89
2023-02-08T11:58:04.174Z,9.86
2023-02-08T11:59:03.913Z,9.93
2023-02-08T12:00:03.855Z,10.07
2023-02-08T12:01:03.708Z,10.18
2023-02-08T12:02:04.262Z,10.12
2023-02-08T12:03:03.773Z,10.06
2023-02-08T12:04:03.857Z,10.07
2023-02-08T12:05:03.949Z,9.89
2023-02-08T12:06:04.068Z,9.79
2023-02-08T12:07:03.943Z,9.88
2023-02-08T12:08:04.185Z,10.03
2023-02-08T12:09:04.378Z,10.26
2023-02-08T12:10:03.887Z,10.46
2023-02-08T12:11:04.290Z,10.63
2023-02-08T12:12:03.759Z,10.68
2023-02-08T12:13:03.711Z,10.76
2023-02-08T12:14:03.902Z,10.92
2023-02-08T12:15:03.305Z,10.89
2023-02-08T12:16:04.265Z,10.71
2023-02-08T12:17:03.773Z,10.74
2023-02-08T12:18:03.529Z,10.74
2023-02-08T12:19:03.469Z,10.77
2023-02-08T12:20:03.647Z,10.84
2023-02-08T12:21:03.545Z,10.92
2023-02-08T12:22:03.820Z,10.88
2023-02-08T12:23:03.711Z,11.01
2023-02-08T12:24:03.994Z,11.02
2023-02-08T12:25:03.565Z,11.03
2023-02-08T12:26:03.930Z,11.06
2023-02-08T12:27:04.423Z,11.07
2023-02-08T12:28:04.528Z,11.06
2023-02-08T12:29:04.624Z,11.13
2023-02-08T12:30:04.069Z,11.09
2023-02-08T12:31:04.650Z,11.16
2023-02-08T12:32:03.554Z,11.25
2023-02-08T12:33:03.614Z,11.32
2023-02-08T12:34:03.503Z,11.27
2023-02-08T12:35:03.422Z,11.31
2023-02-08T12:36:05.259Z,11.39
2023-02-08T12:37:03.578Z,11.49
2023-02-08T12:38:03.655Z,11.53
2023-02-08T12:39:17.849Z,11.61
2023-02-08T12:40:03.548Z,11.62
2023-02-08T12:41:03.711Z,11.70
2023-02-08T12:42:03.920Z,11.65
2023-02-08T12:43:03.786Z,11.50
2023-02-08T12:44:03.848Z,11.41
2023-02-08T12:45:03.912Z,11.36
2023-02-08T12:46:03.795Z,11.19
2023-02-08T12:47:03.623Z,11.11
2023-02-08T12:48:04.616Z,11.19
2023-02-08T12:49:03.408Z,11.20
2023-02-08T12:50:03.198Z,11.16
2023-02-08T12:51:03.398Z,11.11
2023-02-08T12:52:03.624Z,11.20
2023-02-08T12:53:03.696Z,11.27
2023-02-08T12:54:03.512Z,11.16
2023-02-08T12:55:03.703Z,11.11
2023-02-08T12:56:03.560Z,11.02
2023-02-08T12:57:03.957Z,11.11
2023-02-08T12:58:03.514Z,11.27
2023-02-08T12:59:13.191Z,11.41